sensor_id;sensor_type;location;lat;lon;timestamp;temperature;humidity
44461;DHT22;30162;53.642;10.640;2022-07-11T00:00:09;16.50;85.30
44461;DHT22;30162;53.642;10.640;2022-07-11T00:02:36;16.60;85.00
44461;DHT22;30162;53.642;10.640;2022-07-11T00:05:01;16.70;84.70
44461;DHT22;30162;53.642;10.640;2022-07-11T00:07:27;16.70;84.00
44461;DHT22;30162;53.642;10.640;2022-07-11T00:09:53;16.50;85.00
44461;DHT22;30162;53.642;10.640;2022-07-11T00:12:19;16.60;84.90
44461;DHT22;30162;53.642;10.640;2022-07-11T00:14:47;16.50;84.80
44461;DHT22;30162;53.642;10.640;2022-07-11T00:17:13;16.30;85.90
44461;DHT22;30162;53.642;10.640;2022-07-11T00:19:38;16.30;86.40
44461;DHT22;30162;53.642;10.640;2022-07-11T00:22:04;16.30;86.20
44461;DHT22;30162;53.642;10.640;2022-07-11T00:24:30;16.40;86.00
44461;DHT22;30162;53.642;10.640;2022-07-11T00:26:56;16.40;86.00
44461;DHT22;30162;53.642;10.640;2022-07-11T00:29:21;16.30;86.10
44461;DHT22;30162;53.642;10.640;2022-07-11T00:31:47;16.40;86.20
44461;DHT22;30162;53.642;10.640;2022-07-11T00:34:13;16.40;86.10
44461;DHT22;30162;53.642;10.640;2022-07-11T00:36:40;16.30;86.80
44461;DHT22;30162;53.642;10.640;2022-07-11T00:39:05;16.30;87.10
44461;DHT22;30162;53.642;10.640;2022-07-11T00:41:31;16.20;87.30
44461;DHT22;30162;53.642;10.640;2022-07-11T00:43:59;16.20;87.60
44461;DHT22;30162;53.642;10.640;2022-07-11T00:46:26;16.30;87.60
44461;DHT22;30162;53.642;10.640;2022-07-11T00:48:53;16.30;87.70
44461;DHT22;30162;53.642;10.640;2022-07-11T00:51:19;16.20;87.70
44461;DHT22;30162;53.642;10.640;2022-07-11T00:53:50;16.40;87.40
44461;DHT22;30162;53.642;10.640;2022-07-11T00:56:19;16.30;87.60
44461;DHT22;30162;53.642;10.640;2022-07-11T00:58:45;16.20;87.30
44461;DHT22;30162;53.642;10.640;2022-07-11T01:01:11;16.20;87.50
44461;DHT22;30162;53.642;10.640;2022-07-11T01:03:37;16.20;87.40
44461;DHT22;30162;53.642;10.640;2022-07-11T01:06:05;16.10;88.00
44461;DHT22;30162;53.642;10.640;2022-07-11T01:08:32;16.10;88.00
44461;DHT22;30162;53.642;10.640;2022-07-11T01:11:02;16.00;88.20
44461;DHT22;30162;53.642;10.640;2022-07-11T01:13:28;16.00;88.70
44461;DHT22;30162;53.642;10.640;2022-07-11T01:18:36;15.90;89.10
44461;DHT22;30162;53.642;10.640;2022-07-11T01:21:09;16.00;89.10
44461;DHT22;30162;53.642;10.640;2022-07-11T01:23:35;16.10;88.70
44461;DHT22;30162;53.642;10.640;2022-07-11T01:26:01;16.00;88.80
44461;DHT22;30162;53.642;10.640;2022-07-11T01:28:26;15.80;90.00
44461;DHT22;30162;53.642;10.640;2022-07-11T01:30:52;15.90;90.10
44461;DHT22;30162;53.642;10.640;2022-07-11T01:33:18;15.90;90.10
44461;DHT22;30162;53.642;10.640;2022-07-11T01:35:44;15.90;90.00
44461;DHT22;30162;53.642;10.640;2022-07-11T01:38:09;16.00;90.00
44461;DHT22;30162;53.642;10.640;2022-07-11T01:40:35;16.00;89.80
44461;DHT22;30162;53.642;10.640;2022-07-11T01:43:00;15.90;90.00
44461;DHT22;30162;53.642;10.640;2022-07-11T01:45:26;15.90;90.00
44461;DHT22;30162;53.642;10.640;2022-07-11T01:47:52;15.90;90.30
44461;DHT22;30162;53.642;10.640;2022-07-11T01:50:17;15.90;90.10
44461;DHT22;30162;53.642;10.640;2022-07-11T01:52:43;15.90;89.80
44461;DHT22;30162;53.642;10.640;2022-07-11T01:55:09;15.90;90.00
44461;DHT22;30162;53.642;10.640;2022-07-11T01:57:36;15.90;90.20
44461;DHT22;30162;53.642;10.640;2022-07-11T02:00:02;15.80;90.20
44461;DHT22;30162;53.642;10.640;2022-07-11T02:02:29;15.80;90.30
44461;DHT22;30162;53.642;10.640;2022-07-11T02:04:54;15.70;90.30
44461;DHT22;30162;53.642;10.640;2022-07-11T02:07:20;15.60;90.80
44461;DHT22;30162;53.642;10.640;2022-07-11T02:10:06;15.60;90.80
44461;DHT22;30162;53.642;10.640;2022-07-11T02:12:31;15.50;90.90
44461;DHT22;30162;53.642;10.640;2022-07-11T02:14:57;15.60;90.70
44461;DHT22;30162;53.642;10.640;2022-07-11T02:17:22;15.60;90.60
44461;DHT22;30162;53.642;10.640;2022-07-11T02:19:48;15.70;90.20
44461;DHT22;30162;53.642;10.640;2022-07-11T02:22:13;15.70;90.10
44461;DHT22;30162;53.642;10.640;2022-07-11T02:24:40;15.80;89.30
44461;DHT22;30162;53.642;10.640;2022-07-11T02:27:06;15.70;88.60
44461;DHT22;30162;53.642;10.640;2022-07-11T02:29:31;15.50;88.60
44461;DHT22;30162;53.642;10.640;2022-07-11T02:31:57;15.20;89.10
44461;DHT22;30162;53.642;10.640;2022-07-11T02:34:22;15.00;87.70
44461;DHT22;30162;53.642;10.640;2022-07-11T02:36:48;15.00;88.00
44461;DHT22;30162;53.642;10.640;2022-07-11T02:39:13;14.80;88.50
44461;DHT22;30162;53.642;10.640;2022-07-11T02:41:39;14.90;89.70
44461;DHT22;30162;53.642;10.640;2022-07-11T02:44:04;14.90;89.10
44461;DHT22;30162;53.642;10.640;2022-07-11T02:46:30;14.80;89.10
44461;DHT22;30162;53.642;10.640;2022-07-11T02:48:56;15.00;88.80
44461;DHT22;30162;53.642;10.640;2022-07-11T02:51:22;15.00;88.40
44461;DHT22;30162;53.642;10.640;2022-07-11T02:53:47;15.00;88.00
44461;DHT22;30162;53.642;10.640;2022-07-11T02:56:13;14.70;87.70
44461;DHT22;30162;53.642;10.640;2022-07-11T02:58:38;14.60;88.70
44461;DHT22;30162;53.642;10.640;2022-07-11T03:01:04;14.50;89.80
44461;DHT22;30162;53.642;10.640;2022-07-11T03:03:30;14.30;90.10
44461;DHT22;30162;53.642;10.640;2022-07-11T03:05:56;14.30;90.70
44461;DHT22;30162;53.642;10.640;2022-07-11T03:08:21;14.50;90.10
44461;DHT22;30162;53.642;10.640;2022-07-11T03:10:48;14.30;90.10
44461;DHT22;30162;53.642;10.640;2022-07-11T03:13:14;14.20;90.70
44461;DHT22;30162;53.642;10.640;2022-07-11T03:15:39;14.10;91.10
44461;DHT22;30162;53.642;10.640;2022-07-11T03:18:05;14.00;90.90
44461;DHT22;30162;53.642;10.640;2022-07-11T03:20:30;13.90;91.30
44461;DHT22;30162;53.642;10.640;2022-07-11T03:22:56;14.00;91.10
44461;DHT22;30162;53.642;10.640;2022-07-11T03:25:21;14.00;91.10
44461;DHT22;30162;53.642;10.640;2022-07-11T03:27:47;14.10;91.30
44461;DHT22;30162;53.642;10.640;2022-07-11T03:30:12;14.10;91.50
44461;DHT22;30162;53.642;10.640;2022-07-11T03:32:40;14.10;91.70
44461;DHT22;30162;53.642;10.640;2022-07-11T03:35:06;14.30;91.80
44461;DHT22;30162;53.642;10.640;2022-07-11T03:37:50;14.30;91.90
44461;DHT22;30162;53.642;10.640;2022-07-11T03:40:16;14.40;92.00
44461;DHT22;30162;53.642;10.640;2022-07-11T03:42:41;14.50;92.00
44461;DHT22;30162;53.642;10.640;2022-07-11T03:45:07;14.60;91.80
44461;DHT22;30162;53.642;10.640;2022-07-11T03:47:33;14.70;91.90
44461;DHT22;30162;53.642;10.640;2022-07-11T03:49:59;14.80;91.80
44461;DHT22;30162;53.642;10.640;2022-07-11T03:52:25;14.90;91.40
44461;DHT22;30162;53.642;10.640;2022-07-11T03:54:51;14.90;91.00
44461;DHT22;30162;53.642;10.640;2022-07-11T03:57:17;14.90;91.10
44461;DHT22;30162;53.642;10.640;2022-07-11T03:59:42;14.90;91.20
44461;DHT22;30162;53.642;10.640;2022-07-11T04:02:08;14.80;91.30
44461;DHT22;30162;53.642;10.640;2022-07-11T04:04:33;14.70;91.40
44461;DHT22;30162;53.642;10.640;2022-07-11T04:06:59;14.90;91.80
44461;DHT22;30162;53.642;10.640;2022-07-11T04:09:24;15.10;91.00
44461;DHT22;30162;53.642;10.640;2022-07-11T04:11:50;15.30;90.90
44461;DHT22;30162;53.642;10.640;2022-07-11T04:14:16;15.40;91.00
44461;DHT22;30162;53.642;10.640;2022-07-11T04:16:41;15.50;90.90
44461;DHT22;30162;53.642;10.640;2022-07-11T04:19:07;15.60;90.90
44461;DHT22;30162;53.642;10.640;2022-07-11T04:21:32;15.90;90.80
44461;DHT22;30162;53.642;10.640;2022-07-11T04:23:58;16.10;90.60
44461;DHT22;30162;53.642;10.640;2022-07-11T04:26:24;16.20;90.60
44461;DHT22;30162;53.642;10.640;2022-07-11T04:28:49;16.40;90.60
44461;DHT22;30162;53.642;10.640;2022-07-11T04:31:15;16.40;90.40
44461;DHT22;30162;53.642;10.640;2022-07-11T04:33:40;16.40;90.60
44461;DHT22;30162;53.642;10.640;2022-07-11T04:36:06;16.50;90.30
44461;DHT22;30162;53.642;10.640;2022-07-11T04:38:32;16.50;90.20
44461;DHT22;30162;53.642;10.640;2022-07-11T04:40:57;16.50;90.20
44461;DHT22;30162;53.642;10.640;2022-07-11T04:43:23;16.80;89.70
44461;DHT22;30162;53.642;10.640;2022-07-11T04:45:48;16.90;89.30
44461;DHT22;30162;53.642;10.640;2022-07-11T04:48:15;16.90;89.30
44461;DHT22;30162;53.642;10.640;2022-07-11T04:50:43;17.10;88.90
44461;DHT22;30162;53.642;10.640;2022-07-11T04:53:11;17.20;88.80
44461;DHT22;30162;53.642;10.640;2022-07-11T04:55:38;17.30;88.30
44461;DHT22;30162;53.642;10.640;2022-07-11T04:58:09;17.40;87.70
44461;DHT22;30162;53.642;10.640;2022-07-11T05:00:35;17.50;88.20
44461;DHT22;30162;53.642;10.640;2022-07-11T05:03:01;17.60;87.60
44461;DHT22;30162;53.642;10.640;2022-07-11T05:05:27;17.70;87.80
44461;DHT22;30162;53.642;10.640;2022-07-11T05:07:53;17.90;87.30
44461;DHT22;30162;53.642;10.640;2022-07-11T05:10:18;17.90;88.10
44461;DHT22;30162;53.642;10.640;2022-07-11T05:12:44;17.90;88.60
44461;DHT22;30162;53.642;10.640;2022-07-11T05:15:10;18.10;87.90
44461;DHT22;30162;53.642;10.640;2022-07-11T05:17:35;18.10;87.80
44461;DHT22;30162;53.642;10.640;2022-07-11T05:20:01;18.30;87.30
44461;DHT22;30162;53.642;10.640;2022-07-11T05:22:27;18.30;85.90
44461;DHT22;30162;53.642;10.640;2022-07-11T05:24:52;18.60;86.30
44461;DHT22;30162;53.642;10.640;2022-07-11T05:27:18;18.60;85.80
44461;DHT22;30162;53.642;10.640;2022-07-11T05:29:44;18.70;85.60
44461;DHT22;30162;53.642;10.640;2022-07-11T05:32:09;18.80;85.30
44461;DHT22;30162;53.642;10.640;2022-07-11T05:34:35;18.90;85.40
44461;DHT22;30162;53.642;10.640;2022-07-11T05:37:01;19.00;84.90
44461;DHT22;30162;53.642;10.640;2022-07-11T05:39:27;19.10;85.10
44461;DHT22;30162;53.642;10.640;2022-07-11T05:41:52;19.20;85.40
44461;DHT22;30162;53.642;10.640;2022-07-11T05:44:18;19.40;85.10
44461;DHT22;30162;53.642;10.640;2022-07-11T05:46:45;19.30;85.20
44461;DHT22;30162;53.642;10.640;2022-07-11T05:49:10;19.40;85.60
44461;DHT22;30162;53.642;10.640;2022-07-11T05:51:38;19.50;85.40
44461;DHT22;30162;53.642;10.640;2022-07-11T05:54:04;19.50;85.70
44461;DHT22;30162;53.642;10.640;2022-07-11T05:56:29;19.60;84.90
44461;DHT22;30162;53.642;10.640;2022-07-11T05:58:56;19.90;84.10
44461;DHT22;30162;53.642;10.640;2022-07-11T06:01:22;19.80;83.40
44461;DHT22;30162;53.642;10.640;2022-07-11T06:03:48;20.10;83.60
44461;DHT22;30162;53.642;10.640;2022-07-11T06:06:14;20.00;82.80
44461;DHT22;30162;53.642;10.640;2022-07-11T06:08:42;20.40;83.00
44461;DHT22;30162;53.642;10.640;2022-07-11T06:11:09;20.40;82.40
44461;DHT22;30162;53.642;10.640;2022-07-11T06:13:35;20.60;81.10
44461;DHT22;30162;53.642;10.640;2022-07-11T06:16:03;20.40;81.80
44461;DHT22;30162;53.642;10.640;2022-07-11T06:18:29;20.60;82.30
44461;DHT22;30162;53.642;10.640;2022-07-11T06:20:54;20.70;81.90
44461;DHT22;30162;53.642;10.640;2022-07-11T06:23:20;20.80;81.20
44461;DHT22;30162;53.642;10.640;2022-07-11T06:25:46;21.00;81.10
44461;DHT22;30162;53.642;10.640;2022-07-11T06:28:11;20.90;81.10
44461;DHT22;30162;53.642;10.640;2022-07-11T06:30:37;21.20;80.70
44461;DHT22;30162;53.642;10.640;2022-07-11T06:33:03;21.40;80.10
44461;DHT22;30162;53.642;10.640;2022-07-11T06:35:29;21.50;80.30
44461;DHT22;30162;53.642;10.640;2022-07-11T06:37:55;21.30;80.10
44461;DHT22;30162;53.642;10.640;2022-07-11T06:40:24;21.50;80.20
44461;DHT22;30162;53.642;10.640;2022-07-11T06:42:49;21.60;79.40
44461;DHT22;30162;53.642;10.640;2022-07-11T06:45:15;21.90;78.40
44461;DHT22;30162;53.642;10.640;2022-07-11T06:47:41;22.10;78.40
44461;DHT22;30162;53.642;10.640;2022-07-11T06:50:07;22.00;76.30
44461;DHT22;30162;53.642;10.640;2022-07-11T06:52:33;22.40;77.10
44461;DHT22;30162;53.642;10.640;2022-07-11T06:54:59;22.60;75.40
44461;DHT22;30162;53.642;10.640;2022-07-11T06:57:24;22.70;74.30
44461;DHT22;30162;53.642;10.640;2022-07-11T06:59:50;23.00;73.80
44461;DHT22;30162;53.642;10.640;2022-07-11T07:02:16;23.10;74.00
44461;DHT22;30162;53.642;10.640;2022-07-11T07:04:41;23.40;73.30
44461;DHT22;30162;53.642;10.640;2022-07-11T07:07:07;23.60;72.60
44461;DHT22;30162;53.642;10.640;2022-07-11T07:09:32;23.50;72.20
44461;DHT22;30162;53.642;10.640;2022-07-11T07:11:58;23.50;71.60
44461;DHT22;30162;53.642;10.640;2022-07-11T07:14:23;23.50;69.70
44461;DHT22;30162;53.642;10.640;2022-07-11T07:16:49;23.00;70.90
44461;DHT22;30162;53.642;10.640;2022-07-11T07:19:15;23.00;70.50
44461;DHT22;30162;53.642;10.640;2022-07-11T07:21:40;23.40;69.00
44461;DHT22;30162;53.642;10.640;2022-07-11T07:24:06;23.10;69.10
44461;DHT22;30162;53.642;10.640;2022-07-11T07:26:32;23.50;70.80
44461;DHT22;30162;53.642;10.640;2022-07-11T07:28:58;23.50;69.60
44461;DHT22;30162;53.642;10.640;2022-07-11T07:31:24;23.40;68.30
44461;DHT22;30162;53.642;10.640;2022-07-11T07:33:50;23.60;69.70
44461;DHT22;30162;53.642;10.640;2022-07-11T07:36:15;23.90;67.90
44461;DHT22;30162;53.642;10.640;2022-07-11T07:38:42;24.00;68.10
44461;DHT22;30162;53.642;10.640;2022-07-11T07:41:09;24.00;67.50
44461;DHT22;30162;53.642;10.640;2022-07-11T07:43:35;24.20;66.70
44461;DHT22;30162;53.642;10.640;2022-07-11T07:46:00;24.50;67.80
44461;DHT22;30162;53.642;10.640;2022-07-11T07:48:26;24.70;67.50
44461;DHT22;30162;53.642;10.640;2022-07-11T07:50:51;25.00;66.10
44461;DHT22;30162;53.642;10.640;2022-07-11T07:53:19;25.20;65.80
44461;DHT22;30162;53.642;10.640;2022-07-11T07:55:44;25.10;64.90
44461;DHT22;30162;53.642;10.640;2022-07-11T07:58:10;25.20;64.80
44461;DHT22;30162;53.642;10.640;2022-07-11T08:00:36;25.20;66.00
44461;DHT22;30162;53.642;10.640;2022-07-11T08:03:20;25.60;64.10
44461;DHT22;30162;53.642;10.640;2022-07-11T08:05:45;25.70;64.50
44461;DHT22;30162;53.642;10.640;2022-07-11T08:08:11;25.70;63.50
44461;DHT22;30162;53.642;10.640;2022-07-11T08:10:36;25.90;64.20
44461;DHT22;30162;53.642;10.640;2022-07-11T08:13:03;26.10;62.80
44461;DHT22;30162;53.642;10.640;2022-07-11T08:15:28;26.20;62.40
44461;DHT22;30162;53.642;10.640;2022-07-11T08:17:54;26.10;61.50
44461;DHT22;30162;53.642;10.640;2022-07-11T08:20:20;26.00;63.60
44461;DHT22;30162;53.642;10.640;2022-07-11T08:22:46;26.00;63.60
44461;DHT22;30162;53.642;10.640;2022-07-11T08:25:12;26.20;62.00
44461;DHT22;30162;53.642;10.640;2022-07-11T08:27:37;26.20;62.40
44461;DHT22;30162;53.642;10.640;2022-07-11T08:30:05;26.40;61.30
44461;DHT22;30162;53.642;10.640;2022-07-11T08:32:31;26.40;62.10
44461;DHT22;30162;53.642;10.640;2022-07-11T08:34:56;26.50;61.60
44461;DHT22;30162;53.642;10.640;2022-07-11T08:37:22;26.70;60.90
44461;DHT22;30162;53.642;10.640;2022-07-11T08:39:47;26.60;60.80
44461;DHT22;30162;53.642;10.640;2022-07-11T08:42:14;26.80;56.20
44461;DHT22;30162;53.642;10.640;2022-07-11T08:44:41;26.50;57.50
44461;DHT22;30162;53.642;10.640;2022-07-11T08:47:07;26.90;60.00
44461;DHT22;30162;53.642;10.640;2022-07-11T08:49:33;27.20;60.30
44461;DHT22;30162;53.642;10.640;2022-07-11T08:51:59;27.00;60.60
44461;DHT22;30162;53.642;10.640;2022-07-11T08:54:25;27.10;57.90
44461;DHT22;30162;53.642;10.640;2022-07-11T08:56:50;27.30;58.50
44461;DHT22;30162;53.642;10.640;2022-07-11T08:59:18;27.40;57.60
44461;DHT22;30162;53.642;10.640;2022-07-11T09:01:46;27.50;57.80
44461;DHT22;30162;53.642;10.640;2022-07-11T09:04:12;27.70;57.70
44461;DHT22;30162;53.642;10.640;2022-07-11T09:06:39;27.60;57.60
44461;DHT22;30162;53.642;10.640;2022-07-11T09:09:05;27.50;58.50
44461;DHT22;30162;53.642;10.640;2022-07-11T09:11:48;27.50;57.10
44461;DHT22;30162;53.642;10.640;2022-07-11T09:14:23;27.30;58.20
44461;DHT22;30162;53.642;10.640;2022-07-11T09:17:03;27.50;56.40
44461;DHT22;30162;53.642;10.640;2022-07-11T09:19:31;27.50;57.30
44461;DHT22;30162;53.642;10.640;2022-07-11T09:22:04;28.10;55.30
44461;DHT22;30162;53.642;10.640;2022-07-11T09:27:54;28.60;56.00
44461;DHT22;30162;53.642;10.640;2022-07-11T09:30:24;28.70;55.10
44461;DHT22;30162;53.642;10.640;2022-07-11T09:35:20;28.70;54.00
44461;DHT22;30162;53.642;10.640;2022-07-11T09:37:46;28.60;54.40
44461;DHT22;30162;53.642;10.640;2022-07-11T09:40:12;28.40;55.70
44461;DHT22;30162;53.642;10.640;2022-07-11T09:42:51;28.40;56.10
44461;DHT22;30162;53.642;10.640;2022-07-11T09:45:18;28.60;54.60
44461;DHT22;30162;53.642;10.640;2022-07-11T09:47:48;29.00;53.20
44461;DHT22;30162;53.642;10.640;2022-07-11T09:50:25;29.30;54.40
44461;DHT22;30162;53.642;10.640;2022-07-11T09:53:05;29.50;53.60
44461;DHT22;30162;53.642;10.640;2022-07-11T09:55:32;29.50;54.00
44461;DHT22;30162;53.642;10.640;2022-07-11T09:57:58;29.50;53.90
44461;DHT22;30162;53.642;10.640;2022-07-11T10:00:24;29.50;53.60
44461;DHT22;30162;53.642;10.640;2022-07-11T10:02:52;29.40;52.80
44461;DHT22;30162;53.642;10.640;2022-07-11T10:05:18;29.00;52.50
44461;DHT22;30162;53.642;10.640;2022-07-11T10:07:43;28.70;52.10
44461;DHT22;30162;53.642;10.640;2022-07-11T10:10:09;28.70;53.40
44461;DHT22;30162;53.642;10.640;2022-07-11T10:12:36;29.00;52.90
44461;DHT22;30162;53.642;10.640;2022-07-11T10:15:08;29.40;53.10
44461;DHT22;30162;53.642;10.640;2022-07-11T10:29:14;29.70;52.80
44461;DHT22;30162;53.642;10.640;2022-07-11T10:31:41;29.40;51.90
44461;DHT22;30162;53.642;10.640;2022-07-11T10:34:08;29.70;51.40
44461;DHT22;30162;53.642;10.640;2022-07-11T10:36:45;29.60;52.80
44461;DHT22;30162;53.642;10.640;2022-07-11T10:39:22;29.80;50.70
44461;DHT22;30162;53.642;10.640;2022-07-11T10:41:59;29.50;49.00
44461;DHT22;30162;53.642;10.640;2022-07-11T10:44:27;29.10;50.50
44461;DHT22;30162;53.642;10.640;2022-07-11T10:46:53;29.30;52.20
44461;DHT22;30162;53.642;10.640;2022-07-11T10:52:07;29.60;52.50
44461;DHT22;30162;53.642;10.640;2022-07-11T10:54:46;29.60;52.40
44461;DHT22;30162;53.642;10.640;2022-07-11T11:00:05;30.00;50.10
44461;DHT22;30162;53.642;10.640;2022-07-11T11:02:32;29.60;52.90
44461;DHT22;30162;53.642;10.640;2022-07-11T11:05:47;29.80;53.10
44461;DHT22;30162;53.642;10.640;2022-07-11T11:11:05;30.20;50.50
44461;DHT22;30162;53.642;10.640;2022-07-11T11:13:33;30.40;49.60
44461;DHT22;30162;53.642;10.640;2022-07-11T11:16:01;30.70;48.30
44461;DHT22;30162;53.642;10.640;2022-07-11T11:18:35;30.40;50.20
44461;DHT22;30162;53.642;10.640;2022-07-11T11:23:43;30.20;48.20
44461;DHT22;30162;53.642;10.640;2022-07-11T11:26:18;30.00;47.30
44461;DHT22;30162;53.642;10.640;2022-07-11T11:29:10;30.30;48.80
44461;DHT22;30162;53.642;10.640;2022-07-11T11:31:36;30.50;48.70
44461;DHT22;30162;53.642;10.640;2022-07-11T11:34:03;30.20;49.30
44461;DHT22;30162;53.642;10.640;2022-07-11T11:36:29;29.40;48.90
44461;DHT22;30162;53.642;10.640;2022-07-11T11:38:55;28.90;49.80
44461;DHT22;30162;53.642;10.640;2022-07-11T11:41:25;28.30;51.00
44461;DHT22;30162;53.642;10.640;2022-07-11T11:43:53;28.00;52.00
44461;DHT22;30162;53.642;10.640;2022-07-11T11:46:26;28.00;51.20
44461;DHT22;30162;53.642;10.640;2022-07-11T11:49:00;28.50;51.30
44461;DHT22;30162;53.642;10.640;2022-07-11T11:51:27;29.20;50.50
44461;DHT22;30162;53.642;10.640;2022-07-11T11:53:55;29.30;48.40
44461;DHT22;30162;53.642;10.640;2022-07-11T11:56:28;29.60;49.90
44461;DHT22;30162;53.642;10.640;2022-07-11T11:59:03;29.80;48.30
44461;DHT22;30162;53.642;10.640;2022-07-11T12:01:31;29.20;47.80
44461;DHT22;30162;53.642;10.640;2022-07-11T12:03:59;29.50;49.30
44461;DHT22;30162;53.642;10.640;2022-07-11T12:06:30;29.70;49.70
44461;DHT22;30162;53.642;10.640;2022-07-11T12:11:24;29.30;49.60
44461;DHT22;30162;53.642;10.640;2022-07-11T12:13:56;29.50;48.00
44461;DHT22;30162;53.642;10.640;2022-07-11T12:16:23;29.60;47.90
44461;DHT22;30162;53.642;10.640;2022-07-11T12:21:34;29.50;48.30
44461;DHT22;30162;53.642;10.640;2022-07-11T12:24:02;28.90;46.70
44461;DHT22;30162;53.642;10.640;2022-07-11T12:26:29;28.40;49.90
44461;DHT22;30162;53.642;10.640;2022-07-11T12:34:20;29.60;48.50
44461;DHT22;30162;53.642;10.640;2022-07-11T12:36:46;29.80;47.70
44461;DHT22;30162;53.642;10.640;2022-07-11T12:39:22;30.20;47.60
44461;DHT22;30162;53.642;10.640;2022-07-11T12:41:50;30.40;48.70
44461;DHT22;30162;53.642;10.640;2022-07-11T12:44:24;30.30;49.10
44461;DHT22;30162;53.642;10.640;2022-07-11T12:47:09;30.30;48.50
44461;DHT22;30162;53.642;10.640;2022-07-11T12:49:34;30.60;48.30
44461;DHT22;30162;53.642;10.640;2022-07-11T12:52:00;30.40;47.70
44461;DHT22;30162;53.642;10.640;2022-07-11T12:54:30;30.40;47.30
44461;DHT22;30162;53.642;10.640;2022-07-11T12:56:57;30.60;47.90
44461;DHT22;30162;53.642;10.640;2022-07-11T12:59:25;30.70;47.80
44461;DHT22;30162;53.642;10.640;2022-07-11T13:02:07;30.70;47.80
44461;DHT22;30162;53.642;10.640;2022-07-11T13:10:16;29.70;48.70
44461;DHT22;30162;53.642;10.640;2022-07-11T13:12:43;29.60;49.50
44461;DHT22;30162;53.642;10.640;2022-07-11T13:15:10;29.30;49.50
44461;DHT22;30162;53.642;10.640;2022-07-11T13:17:40;28.80;50.60
44461;DHT22;30162;53.642;10.640;2022-07-11T13:20:26;29.30;49.70
44461;DHT22;30162;53.642;10.640;2022-07-11T13:22:54;29.50;50.10
44461;DHT22;30162;53.642;10.640;2022-07-11T13:25:21;29.70;48.50
44461;DHT22;30162;53.642;10.640;2022-07-11T13:27:48;30.00;49.40
44461;DHT22;30162;53.642;10.640;2022-07-11T13:30:16;29.90;48.50
44461;DHT22;30162;53.642;10.640;2022-07-11T13:32:48;29.90;48.60
44461;DHT22;30162;53.642;10.640;2022-07-11T13:35:14;30.20;49.20
44461;DHT22;30162;53.642;10.640;2022-07-11T13:37:40;30.40;48.20
44461;DHT22;30162;53.642;10.640;2022-07-11T13:40:11;30.40;49.80
44461;DHT22;30162;53.642;10.640;2022-07-11T13:42:39;30.70;47.90
44461;DHT22;30162;53.642;10.640;2022-07-11T13:45:06;31.00;47.60
44461;DHT22;30162;53.642;10.640;2022-07-11T13:47:32;31.20;46.40
44461;DHT22;30162;53.642;10.640;2022-07-11T13:49:58;31.00;46.70
44461;DHT22;30162;53.642;10.640;2022-07-11T13:52:23;30.80;46.40
44461;DHT22;30162;53.642;10.640;2022-07-11T13:54:49;31.10;46.20
44461;DHT22;30162;53.642;10.640;2022-07-11T13:57:15;30.80;45.90
44461;DHT22;30162;53.642;10.640;2022-07-11T13:59:41;30.70;45.30
44461;DHT22;30162;53.642;10.640;2022-07-11T14:02:07;30.40;46.80
44461;DHT22;30162;53.642;10.640;2022-07-11T14:04:32;30.70;46.40
44461;DHT22;30162;53.642;10.640;2022-07-11T14:06:58;29.90;45.00
44461;DHT22;30162;53.642;10.640;2022-07-11T14:09:24;29.70;47.20
44461;DHT22;30162;53.642;10.640;2022-07-11T14:11:51;30.40;47.00
44461;DHT22;30162;53.642;10.640;2022-07-11T14:14:17;30.50;46.60
44461;DHT22;30162;53.642;10.640;2022-07-11T14:16:42;31.00;47.10
44461;DHT22;30162;53.642;10.640;2022-07-11T14:19:08;31.20;46.60
44461;DHT22;30162;53.642;10.640;2022-07-11T14:21:37;31.40;46.70
44461;DHT22;30162;53.642;10.640;2022-07-11T14:24:03;31.10;46.20
44461;DHT22;30162;53.642;10.640;2022-07-11T14:26:29;30.80;47.00
44461;DHT22;30162;53.642;10.640;2022-07-11T14:28:55;30.50;46.90
44461;DHT22;30162;53.642;10.640;2022-07-11T14:31:21;30.50;47.20
44461;DHT22;30162;53.642;10.640;2022-07-11T14:33:48;29.90;47.30
44461;DHT22;30162;53.642;10.640;2022-07-11T14:36:14;29.70;48.50
44461;DHT22;30162;53.642;10.640;2022-07-11T14:38:40;29.80;48.40
44461;DHT22;30162;53.642;10.640;2022-07-11T14:41:05;29.30;48.10
44461;DHT22;30162;53.642;10.640;2022-07-11T14:43:31;29.00;49.50
44461;DHT22;30162;53.642;10.640;2022-07-11T14:45:57;28.60;50.30
44461;DHT22;30162;53.642;10.640;2022-07-11T14:48:23;28.90;49.80
44461;DHT22;30162;53.642;10.640;2022-07-11T14:50:48;29.00;49.70
44461;DHT22;30162;53.642;10.640;2022-07-11T14:53:14;28.90;48.10
44461;DHT22;30162;53.642;10.640;2022-07-11T14:55:39;29.10;47.90
44461;DHT22;30162;53.642;10.640;2022-07-11T14:58:05;29.50;48.50
44461;DHT22;30162;53.642;10.640;2022-07-11T15:00:31;29.80;47.30
44461;DHT22;30162;53.642;10.640;2022-07-11T15:02:57;29.50;47.90
44461;DHT22;30162;53.642;10.640;2022-07-11T15:05:42;29.50;49.20
44461;DHT22;30162;53.642;10.640;2022-07-11T15:08:08;29.80;48.50
44461;DHT22;30162;53.642;10.640;2022-07-11T15:10:51;29.70;49.10
44461;DHT22;30162;53.642;10.640;2022-07-11T15:13:36;30.10;48.50
44461;DHT22;30162;53.642;10.640;2022-07-11T15:16:02;30.30;48.20
44461;DHT22;30162;53.642;10.640;2022-07-11T15:18:28;30.50;48.40
44461;DHT22;30162;53.642;10.640;2022-07-11T15:20:54;30.60;48.20
44461;DHT22;30162;53.642;10.640;2022-07-11T15:23:19;30.30;48.30
44461;DHT22;30162;53.642;10.640;2022-07-11T15:25:45;29.80;48.80
44461;DHT22;30162;53.642;10.640;2022-07-11T15:28:10;29.90;49.00
44461;DHT22;30162;53.642;10.640;2022-07-11T15:30:36;29.80;49.30
44461;DHT22;30162;53.642;10.640;2022-07-11T15:33:02;29.40;48.50
44461;DHT22;30162;53.642;10.640;2022-07-11T15:35:27;29.80;48.70
44461;DHT22;30162;53.642;10.640;2022-07-11T15:37:53;29.80;48.50
44461;DHT22;30162;53.642;10.640;2022-07-11T15:40:19;29.90;48.90
44461;DHT22;30162;53.642;10.640;2022-07-11T15:42:44;29.70;48.90
44461;DHT22;30162;53.642;10.640;2022-07-11T15:45:10;29.50;47.80
44461;DHT22;30162;53.642;10.640;2022-07-11T15:47:37;29.40;49.20
44461;DHT22;30162;53.642;10.640;2022-07-11T15:50:05;29.40;49.50
44461;DHT22;30162;53.642;10.640;2022-07-11T15:52:31;29.40;48.70
44461;DHT22;30162;53.642;10.640;2022-07-11T15:54:56;29.60;48.80
44461;DHT22;30162;53.642;10.640;2022-07-11T15:57:22;29.40;48.80
44461;DHT22;30162;53.642;10.640;2022-07-11T15:59:47;29.40;48.30
44461;DHT22;30162;53.642;10.640;2022-07-11T16:02:13;29.70;49.00